createdAt,value
2023-01-08T00:01:21.087Z,98477.00
2023-01-08T00:03:50.328Z,98474.56
2023-01-08T00:06:21.514Z,98469.50
2023-01-08T00:08:50.302Z,98472.94
2023-01-08T00:11:19.353Z,98474.91
2023-01-08T00:13:48.045Z,98473.53
2023-01-08T00:16:20.708Z,98465.81
2023-01-08T00:18:50.144Z,98463.13
2023-01-08T00:21:19.034Z,98467.56
2023-01-08T00:23:48.377Z,98463.94
2023-01-08T00:26:17.160Z,98459.91
2023-01-08T00:28:45.904Z,98455.81
2023-01-08T00:31:15.392Z,98457.88
2023-01-08T00:33:45.716Z,98453.81
2023-01-08T00:36:18.794Z,98449.16
2023-01-08T00:38:48.914Z,98449.78
2023-01-08T00:41:18.602Z,98446.31
2023-01-08T00:43:47.365Z,98442.88
2023-01-08T00:46:16.189Z,98437.75
2023-01-08T00:49:03.568Z,98441.22
2023-01-08T00:51:32.239Z,98437.56
2023-01-08T00:54:01.258Z,98431.59
2023-01-08T00:56:29.985Z,98422.25
2023-01-08T00:58:58.781Z,98417.16
2023-01-08T01:01:27.592Z,98414.75
2023-01-08T01:03:56.767Z,98394.41
2023-01-08T01:06:26.964Z,98390.97
2023-01-08T01:08:57.210Z,98371.63
2023-01-08T01:11:29.015Z,98369.56
2023-01-08T01:13:58.763Z,98367.56
2023-01-08T01:16:28.067Z,98373.66
2023-01-08T01:18:57.785Z,98372.84
2023-01-08T01:21:31.438Z,98377.50
2023-01-08T01:24:03.116Z,98379.97
2023-01-08T01:26:33.710Z,98383.22
2023-01-08T01:29:02.754Z,98390.34
2023-01-08T01:31:35.744Z,98399.09
2023-01-08T01:34:04.630Z,98409.28
2023-01-08T01:36:34.734Z,98408.66
2023-01-08T01:39:03.539Z,98410.72
2023-01-08T01:41:37.898Z,98407.03
2023-01-08T01:44:40.628Z,98396.41
2023-01-08T01:47:22.619Z,98398.06
2023-01-08T01:49:59.090Z,98397.63
2023-01-08T01:52:33.385Z,98398.84
2023-01-08T01:55:04.477Z,98390.50
2023-01-08T01:57:35.004Z,98385.88
2023-01-08T02:00:09.161Z,98392.34
2023-01-08T02:02:41.049Z,98383.41
2023-01-08T02:05:11.309Z,98384.22
2023-01-08T02:07:49.911Z,98373.84
2023-01-08T02:10:31.049Z,98367.13
2023-01-08T02:13:09.639Z,98352.88
2023-01-08T02:15:53.025Z,98358.16
2023-01-08T02:18:30.316Z,98359.75
2023-01-08T02:21:09.092Z,98351.41
2023-01-08T02:23:50.614Z,98355.66
2023-01-08T02:26:27.831Z,98353.25
2023-01-08T02:29:04.152Z,98355.09
2023-01-08T02:31:35.237Z,98349.59
2023-01-08T02:34:04.267Z,98348.38
2023-01-08T02:36:39.341Z,98349.78
2023-01-08T02:39:46.934Z,98352.00
2023-01-08T02:42:33.831Z,98348.38
2023-01-08T02:45:14.732Z,98345.53
2023-01-08T02:47:48.356Z,98342.28
2023-01-08T02:50:27.525Z,98337.78
2023-01-08T02:53:05.165Z,98334.53
2023-01-08T02:55:37.762Z,98323.94
2023-01-08T02:58:08.691Z,98325.16
2023-01-08T03:00:38.615Z,98321.13
2023-01-08T03:03:14.053Z,98324.75
2023-01-08T03:05:47.516Z,98326.81
2023-01-08T03:08:51.657Z,98326.59
2023-01-08T03:11:22.961Z,98330.03
2023-01-08T03:14:01.732Z,98331.28
2023-01-08T03:16:37.692Z,98328.41
2023-01-08T03:19:14.327Z,98331.25
2023-01-08T03:21:46.482Z,98337.38
2023-01-08T03:24:27.929Z,98331.25
2023-01-08T03:27:04.033Z,98325.78
2023-01-08T03:29:37.173Z,98326.56
2023-01-08T03:32:13.308Z,98317.81
2023-01-08T03:34:53.491Z,98320.69
2023-01-08T03:37:29.857Z,98319.88
2023-01-08T03:40:05.799Z,98304.00
2023-01-08T03:42:34.726Z,98303.56
2023-01-08T03:45:05.661Z,98295.06
2023-01-08T03:47:37.514Z,98280.63
2023-01-08T03:50:15.532Z,98282.03
2023-01-08T03:52:44.247Z,98273.50
2023-01-08T03:55:12.997Z,98278.00
2023-01-08T03:57:41.785Z,98283.06
2023-01-08T04:00:14.083Z,98277.34
2023-01-08T04:02:44.068Z,98267.41
2023-01-08T04:05:13.305Z,98264.53
2023-01-08T04:07:42.137Z,98257.19
2023-01-08T04:10:11.212Z,98258.84
2023-01-08T04:12:39.882Z,98248.06
2023-01-08T04:15:09.844Z,98246.22
2023-01-08T04:17:40.117Z,98253.34
2023-01-08T04:20:10.525Z,98262.50
2023-01-08T04:22:39.273Z,98266.78
2023-01-08T04:25:08.767Z,98265.31
2023-01-08T04:27:37.504Z,98260.22
2023-01-08T04:30:07.514Z,98257.59
2023-01-08T04:32:36.220Z,98266.56
2023-01-08T04:35:07.489Z,98257.59
2023-01-08T04:37:36.169Z,98269.41
2023-01-08T04:40:05.722Z,98271.06
2023-01-08T04:42:34.468Z,98259.44
2023-01-08T04:45:03.203Z,98266.56
2023-01-08T04:47:31.955Z,98254.56
2023-01-08T04:50:00.674Z,98257.00
2023-01-08T04:52:31.420Z,98268.59
2023-01-08T04:55:00.276Z,98261.06
2023-01-08T04:57:30.036Z,98254.34
2023-01-08T05:00:00.144Z,98255.38
2023-01-08T05:02:29.230Z,98261.28
2023-01-08T05:04:58.223Z,98256.78
2023-01-08T05:07:26.989Z,98251.50
2023-01-08T05:09:57.256Z,98256.38
2023-01-08T05:12:26.005Z,98254.34
2023-01-08T05:14:54.770Z,98254.97
2023-01-08T05:17:23.649Z,98255.19
2023-01-08T05:19:52.353Z,98273.50
2023-01-08T05:22:21.075Z,98265.16
2023-01-08T05:24:50.831Z,98267.38
2023-01-08T05:27:21.002Z,98268.63
2023-01-08T05:29:51.140Z,98247.03
2023-01-08T05:32:20.775Z,98244.16
2023-01-08T05:34:49.471Z,98254.78
2023-01-08T05:37:18.156Z,98242.13
2023-01-08T05:39:47.051Z,98230.94
2023-01-08T05:42:16.884Z,98248.66
2023-01-08T05:44:48.103Z,98237.47
2023-01-08T05:47:16.949Z,98230.53
2023-01-08T05:49:46.721Z,98232.78
2023-01-08T05:52:15.409Z,98240.13
2023-01-08T05:54:44.173Z,98232.41
2023-01-08T05:57:13.070Z,98223.00
2023-01-08T05:59:41.809Z,98229.13
2023-01-08T06:02:11.910Z,98220.59
2023-01-08T06:04:40.840Z,98206.56
2023-01-08T06:07:09.591Z,98215.69
2023-01-08T06:09:44.018Z,98210.59
2023-01-08T06:12:12.829Z,98217.97
2023-01-08T06:14:41.586Z,98220.59
2023-01-08T06:17:13.423Z,98200.00
2023-01-08T06:19:42.473Z,98204.09
2023-01-08T06:22:11.805Z,98208.38
2023-01-08T06:24:48.904Z,98212.88
2023-01-08T06:27:18.190Z,98210.59
2023-01-08T06:29:46.947Z,98217.34
2023-01-08T06:32:17.046Z,98222.19
2023-01-08T06:34:45.850Z,98223.03
2023-01-08T06:37:14.772Z,98226.91
2023-01-08T06:39:44.716Z,98231.19
2023-01-08T06:42:16.748Z,98234.84
2023-01-08T06:44:49.623Z,98229.34
2023-01-08T06:47:19.853Z,98234.63
2023-01-08T06:49:48.591Z,98237.25
2023-01-08T06:52:17.748Z,98243.97
2023-01-08T06:54:47.492Z,98232.38
2023-01-08T06:57:18.772Z,98239.69
2023-01-08T06:59:47.635Z,98241.06
2023-01-08T07:02:18.539Z,98242.69
2023-01-08T07:04:51.144Z,98240.44
2023-01-08T07:07:22.013Z,98252.84
2023-01-08T07:09:51.183Z,98250.59
2023-01-08T07:12:21.581Z,98249.81
2023-01-08T07:14:50.797Z,98255.09
2023-01-08T07:17:19.864Z,98249.38
2023-01-08T07:19:50.352Z,98253.41
2023-01-08T07:22:20.317Z,98245.25
2023-01-08T07:24:50.286Z,98249.09
2023-01-08T07:27:19.229Z,98246.44
2023-01-08T07:29:48.192Z,98249.09
2023-01-08T07:32:18.077Z,98253.56
2023-01-08T07:34:47.029Z,98241.94
2023-01-08T07:37:17.450Z,98247.41
2023-01-08T07:39:48.506Z,98239.03
2023-01-08T07:42:18.556Z,98224.16
2023-01-08T07:44:47.669Z,98222.28
2023-01-08T07:47:16.776Z,98222.25
2023-01-08T07:49:46.401Z,98218.56
2023-01-08T07:52:17.041Z,98223.50
2023-01-08T07:54:46.291Z,98224.28
2023-01-08T07:57:15.601Z,98219.75
2023-01-08T07:59:44.721Z,98217.25
2023-01-08T08:02:14.061Z,98217.66
2023-01-08T08:04:42.956Z,98215.19
2023-01-08T08:07:11.962Z,98217.63
2023-01-08T08:09:42.473Z,98203.28
2023-01-08T08:12:12.378Z,98201.16
2023-01-08T08:14:41.292Z,98198.69
2023-01-08T08:17:10.196Z,98196.19
2023-01-08T08:19:38.998Z,98200.63
2023-01-08T08:22:07.960Z,98200.81
2023-01-08T08:24:39.103Z,98204.44
2023-01-08T08:27:09.379Z,98201.09
2023-01-08T08:29:49.685Z,98184.91
2023-01-08T08:32:18.489Z,98187.50
2023-01-08T08:34:50.786Z,98175.03
2023-01-08T08:37:19.731Z,98180.75
2023-01-08T08:39:49.811Z,98169.81
2023-01-08T08:42:20.608Z,98171.81
2023-01-08T08:44:50.155Z,98175.66
2023-01-08T08:47:19.239Z,98166.78
2023-01-08T08:49:48.192Z,98172.72
2023-01-08T08:52:17.688Z,98167.31
2023-01-08T08:54:47.172Z,98161.94
2023-01-08T09:02:19.742Z,98157.84
2023-01-08T09:04:47.543Z,98153.94
2023-01-08T09:07:15.112Z,98153.06
2023-01-08T09:09:42.787Z,98157.91
2023-01-08T09:12:11.620Z,98152.16
2023-01-08T09:14:40.472Z,98150.88
2023-01-08T09:17:09.671Z,98143.31
2023-01-08T09:19:40.238Z,98129.56
2023-01-08T09:22:11.992Z,98141.38
2023-01-08T09:24:40.893Z,98140.94
2023-01-08T09:27:11.122Z,98147.41
2023-01-08T09:29:39.924Z,98141.03
2023-01-08T09:32:09.897Z,98133.22
2023-01-08T09:34:39.957Z,98132.78
2023-01-08T09:37:08.839Z,98137.03
2023-01-08T09:39:38.059Z,98139.22
2023-01-08T09:42:09.285Z,98142.63
2023-01-08T09:44:43.039Z,98147.03
2023-01-08T09:47:28.832Z,98137.09
2023-01-08T09:50:03.463Z,98130.50
2023-01-08T09:52:34.098Z,98131.13
2023-01-08T09:55:10.824Z,98129.34
2023-01-08T09:57:39.817Z,98138.50
2023-01-08T10:00:17.005Z,98138.63
2023-01-08T10:02:46.677Z,98139.81
2023-01-08T10:05:19.716Z,98129.28
2023-01-08T10:07:52.674Z,98133.69
2023-01-08T10:10:29.367Z,98118.88
2023-01-08T10:13:00.191Z,98126.97
2023-01-08T10:15:29.087Z,98124.19
2023-01-08T10:18:04.856Z,98127.53
2023-01-08T10:20:35.841Z,98116.88
2023-01-08T10:23:13.931Z,98113.91
2023-01-08T10:25:56.075Z,98114.59
2023-01-08T10:28:27.917Z,98102.53
2023-01-08T10:31:09.214Z,98108.56
2023-01-08T10:33:45.284Z,98107.03
2023-01-08T10:36:20.538Z,98101.25
2023-01-08T10:38:57.138Z,98097.88
2023-01-08T10:41:27.652Z,98097.75
2023-01-08T10:44:01.281Z,98088.72
2023-01-08T10:46:35.956Z,98085.56
2023-01-08T10:49:07.964Z,98081.97
2023-01-08T10:51:38.051Z,98071.41
2023-01-08T10:54:24.648Z,98067.94
2023-01-08T10:56:53.688Z,98071.97
2023-01-08T10:59:23.188Z,98064.06
2023-01-08T11:01:56.184Z,98068.44
2023-01-08T11:04:32.547Z,98058.13
2023-01-08T11:07:06.847Z,98070.75
2023-01-08T11:09:43.261Z,98070.25
2023-01-08T11:12:43.611Z,98071.16
2023-01-08T11:15:34.212Z,98068.03
2023-01-08T11:18:20.869Z,98078.13
2023-01-08T11:20:51.386Z,98079.97
2023-01-08T11:23:25.119Z,98090.19
2023-01-08T11:26:03.559Z,98080.88
2023-01-08T11:28:48.138Z,98067.88
2023-01-08T11:31:29.648Z,98066.84
2023-01-08T11:34:11.588Z,98065.78
2023-01-08T11:36:51.456Z,98056.41
2023-01-08T11:39:21.651Z,98055.13
2023-01-08T11:42:16.385Z,98042.84
2023-01-08T11:45:03.083Z,98040.88
2023-01-08T11:47:55.231Z,98032.34
2023-01-08T11:50:29.489Z,98026.75
2023-01-08T11:53:20.735Z,98020.38
2023-01-08T11:56:09.842Z,98026.50
2023-01-08T11:59:00.316Z,98014.22
2023-01-08T12:01:56.083Z,98010.84
2023-01-08T12:04:57.923Z,98013.09
2023-01-08T12:07:40.222Z,98006.25
2023-01-08T12:10:21.524Z,98006.56
2023-01-08T12:13:11.833Z,98004.72
2023-01-08T12:16:03.108Z,98001.81
2023-01-08T12:18:56.417Z,97994.91
2023-01-08T12:21:45.832Z,97985.63
2023-01-08T12:24:40.051Z,97985.63
2023-01-08T12:27:29.776Z,97984.25
2023-01-08T12:30:27.337Z,97989.38
2023-01-08T12:33:04.170Z,97990.88
2023-01-08T12:35:42.082Z,98010.13
2023-01-08T12:38:20.272Z,97999.78
2023-01-08T12:40:53.969Z,97992.59
2023-01-08T12:43:29.941Z,98001.72
2023-01-08T12:46:03.672Z,97990.00
2023-01-08T12:48:36.686Z,97986.28
2023-01-08T12:51:18.263Z,97978.84
2023-01-08T12:54:03.843Z,97982.31
2023-01-08T12:56:44.479Z,97984.34
2023-01-08T12:59:33.750Z,97985.72
2023-01-08T13:02:19.999Z,97986.09
2023-01-08T13:04:49.990Z,97982.56
2023-01-08T13:07:24.378Z,97972.22
2023-01-08T13:09:58.798Z,97976.91
2023-01-08T13:12:37.310Z,97970.59
2023-01-08T13:15:09.384Z,97963.34
2023-01-08T13:17:39.746Z,97958.25
2023-01-08T13:20:10.430Z,97961.81
2023-01-08T13:22:53.831Z,97968.81
2023-01-08T13:25:33.642Z,97965.91
2023-01-08T13:28:03.696Z,97962.19
2023-01-08T13:30:42.678Z,97960.81
2023-01-08T13:33:41.429Z,97954.91
2023-01-08T13:36:24.073Z,97966.63
2023-01-08T13:39:23.335Z,97955.72
2023-01-08T13:42:04.327Z,97964.75
2023-01-08T13:44:40.283Z,97960.25
2023-01-08T13:47:23.376Z,97956.69
2023-01-08T13:49:56.402Z,97945.78
2023-01-08T13:52:50.464Z,97952.16
2023-01-08T13:55:25.444Z,97948.94
2023-01-08T13:57:59.931Z,97944.03
2023-01-08T14:00:46.617Z,97950.97
2023-01-08T14:03:30.887Z,97936.50
2023-01-08T14:06:17.072Z,97930.59
2023-01-08T14:08:55.610Z,97932.47
2023-01-08T14:11:30.784Z,97941.13
2023-01-08T14:14:00.353Z,97932.00
2023-01-08T14:16:33.525Z,97938.44
2023-01-08T14:19:06.068Z,97941.63
2023-01-08T14:21:36.630Z,97944.28
2023-01-08T14:24:08.326Z,97944.28
2023-01-08T14:26:39.933Z,97940.72
2023-01-08T14:29:22.959Z,97936.19
2023-01-08T14:31:56.386Z,97940.47
2023-01-08T14:37:32.093Z,97934.00
2023-01-08T14:40:02.074Z,97937.16
2023-01-08T14:42:47.562Z,97922.44
2023-01-08T14:45:22.744Z,97922.94
2023-01-08T14:47:55.586Z,97922.16
2023-01-08T14:50:29.095Z,97917.63
2023-01-08T14:53:08.707Z,97919.38
2023-01-08T14:55:46.079Z,97920.19
2023-01-08T14:58:19.891Z,97915.13
2023-01-08T15:00:56.030Z,97917.78
2023-01-08T15:03:37.379Z,97917.44
2023-01-08T15:06:07.516Z,97927.78
2023-01-08T15:08:41.170Z,97936.50
2023-01-08T15:11:23.135Z,97942.00
2023-01-08T15:13:54.185Z,97938.09
2023-01-08T15:16:30.475Z,97928.56
2023-01-08T15:19:06.680Z,97929.03
2023-01-08T15:21:36.898Z,97942.97
2023-01-08T15:24:09.003Z,97941.25
2023-01-08T15:26:44.333Z,97936.28
2023-01-08T15:29:21.432Z,97942.75
2023-01-08T15:31:51.155Z,97944.06
2023-01-08T15:34:21.916Z,97949.69
2023-01-08T15:36:51.225Z,97952.63
2023-01-08T15:39:21.926Z,97946.56
2023-01-08T15:42:09.091Z,97942.53
2023-01-08T15:44:38.195Z,97949.16
2023-01-08T15:47:06.894Z,97942.22
2023-01-08T15:49:35.993Z,97943.56
2023-01-08T15:52:05.135Z,97939.84
2023-01-08T15:54:35.412Z,97940.34
2023-01-08T15:57:04.111Z,97932.59
2023-01-08T15:59:36.270Z,97943.53
2023-01-08T16:02:05.270Z,97940.66
2023-01-08T16:04:34.827Z,97934.88
2023-01-08T16:07:04.985Z,97930.22
2023-01-08T16:09:35.535Z,97918.19
2023-01-08T16:12:05.819Z,97915.53
2023-01-08T16:14:38.049Z,97911.00
2023-01-08T16:17:07.354Z,97912.88
2023-01-08T16:19:36.184Z,97911.25
2023-01-08T16:22:05.331Z,97905.72
2023-01-08T16:24:35.435Z,97911.31
2023-01-08T16:27:04.107Z,97919.84
2023-01-08T16:29:32.803Z,97907.84
2023-01-08T16:32:01.730Z,97926.38
2023-01-08T16:34:30.937Z,97922.81
2023-01-08T16:36:59.663Z,97920.56
2023-01-08T16:39:28.949Z,97917.03
2023-01-08T16:41:59.048Z,97921.75
2023-01-08T16:44:29.689Z,97928.63
2023-01-08T16:47:01.171Z,97926.28
2023-01-08T16:49:30.345Z,97915.72
2023-01-08T16:51:59.034Z,97914.13
2023-01-08T16:54:32.220Z,97910.06
2023-01-08T16:57:02.524Z,97908.34
2023-01-08T16:59:33.053Z,97904.88
2023-01-08T17:02:07.809Z,97906.47
2023-01-08T17:04:36.782Z,97921.13
2023-01-08T17:07:05.563Z,97917.19
2023-01-08T17:09:35.079Z,97927.88
2023-01-08T17:12:05.988Z,97929.25
2023-01-08T17:14:35.580Z,97929.47
2023-01-08T17:17:04.240Z,97919.16
2023-01-08T17:19:33.968Z,97910.16
2023-01-08T17:22:02.658Z,97916.59
2023-01-08T17:24:31.488Z,97908.72
2023-01-08T17:27:00.282Z,97905.81
2023-01-08T17:29:30.440Z,97903.50
2023-01-08T17:31:59.269Z,97890.66
2023-01-08T17:34:28.093Z,97892.31
2023-01-08T17:36:57.514Z,97880.50
2023-01-08T17:39:26.761Z,97875.97
2023-01-08T17:42:13.423Z,97878.22
2023-01-08T17:44:44.736Z,97871.63
2023-01-08T17:47:13.492Z,97865.13
2023-01-08T17:49:42.343Z,97857.78
2023-01-08T17:52:12.180Z,97845.28
2023-01-08T17:54:41.259Z,97845.59
2023-01-08T17:57:12.651Z,97837.06
2023-01-08T17:59:42.950Z,97829.47
2023-01-08T18:02:39.179Z,97822.66
2023-01-08T18:05:18.899Z,97827.25
2023-01-08T18:07:48.207Z,97831.44
2023-01-08T18:10:17.275Z,97822.78
2023-01-08T18:12:46.460Z,97825.34
2023-01-08T18:15:23.388Z,97811.97
2023-01-08T18:17:52.913Z,97804.56
2023-01-08T18:20:22.989Z,97806.06
2023-01-08T18:22:54.383Z,97807.38
2023-01-08T18:25:23.725Z,97807.25
2023-01-08T18:27:53.178Z,97806.94
2023-01-08T18:30:29.405Z,97807.63
2023-01-08T18:33:00.643Z,97811.91
2023-01-08T18:35:30.981Z,97812.47
2023-01-08T18:38:03.066Z,97819.22
2023-01-08T18:40:34.066Z,97810.19
2023-01-08T18:43:02.813Z,97814.69
2023-01-08T18:45:35.410Z,97811.13
2023-01-08T18:48:05.059Z,97814.34
2023-01-08T18:50:35.821Z,97804.63
2023-01-08T18:53:06.047Z,97791.22
2023-01-08T18:55:35.399Z,97788.00
2023-01-08T18:58:04.753Z,97782.13
2023-01-08T19:00:37.437Z,97778.28
2023-01-08T19:03:09.218Z,97782.94
2023-01-08T19:05:43.004Z,97785.09
2023-01-08T19:08:12.838Z,97791.00
2023-01-08T19:10:42.568Z,97784.09
2023-01-08T19:13:11.520Z,97784.66
2023-01-08T19:15:43.067Z,97786.25
2023-01-08T19:18:12.879Z,97785.91
2023-01-08T19:20:43.713Z,97790.34
2023-01-08T19:23:15.332Z,97779.22
2023-01-08T19:25:45.912Z,97769.75
2023-01-08T19:28:17.307Z,97769.75
2023-01-08T19:31:02.759Z,97759.47
2023-01-08T19:33:35.780Z,97767.13
2023-01-08T19:36:13.093Z,97763.28
2023-01-08T19:38:44.465Z,97763.97
2023-01-08T19:41:33.718Z,97776.31
2023-01-08T19:44:07.769Z,97767.91
2023-01-08T19:46:40.190Z,97769.50
2023-01-08T19:49:11.651Z,97759.34
2023-01-08T19:51:41.261Z,97746.16
2023-01-08T19:54:15.573Z,97751.00
2023-01-08T19:56:50.269Z,97749.19
2023-01-08T19:59:20.503Z,97740.16
2023-01-08T20:01:51.840Z,97725.38
2023-01-08T20:04:35.933Z,97729.75
2023-01-08T20:07:05.430Z,97730.91
2023-01-08T20:09:36.172Z,97730.91
2023-01-08T20:12:07.365Z,97732.66
2023-01-08T20:14:39.669Z,97716.00
2023-01-08T20:17:12.135Z,97716.13
2023-01-08T20:19:43.052Z,97723.78
2023-01-08T20:22:12.460Z,97716.47
2023-01-08T20:24:42.225Z,97711.47
2023-01-08T20:27:12.185Z,97704.34
2023-01-08T20:29:42.593Z,97697.88
2023-01-08T20:32:13.317Z,97701.22
2023-01-08T20:34:43.367Z,97702.50
2023-01-08T20:37:14.175Z,97701.22
2023-01-08T20:39:47.444Z,97699.75
2023-01-08T20:42:32.879Z,97697.19
2023-01-08T20:45:02.732Z,97693.81
2023-01-08T20:47:37.426Z,97703.19
2023-01-08T20:50:19.969Z,97697.88
2023-01-08T20:52:51.613Z,97695.66
2023-01-08T20:55:23.259Z,97690.59
2023-01-08T20:57:53.553Z,97693.50
2023-01-08T21:00:25.838Z,97698.94
2023-01-08T21:02:59.193Z,97692.88
2023-01-08T21:05:28.430Z,97690.75
2023-01-08T21:11:52.563Z,97683.69
2023-01-08T21:14:21.412Z,97682.09
2023-01-08T21:16:50.410Z,97685.91
2023-01-08T21:19:20.975Z,97684.09
2023-01-08T21:21:53.658Z,97684.53
2023-01-08T21:24:22.930Z,97678.69
2023-01-08T21:26:55.001Z,97678.44
2023-01-08T21:29:23.709Z,97666.53
2023-01-08T21:31:52.626Z,97674.19
2023-01-08T21:34:22.905Z,97672.09
2023-01-08T21:36:57.463Z,97660.00
2023-01-08T21:39:26.250Z,97659.75
2023-01-08T21:42:26.636Z,97645.69
2023-01-08T21:45:12.743Z,97631.84
2023-01-08T21:47:41.653Z,97627.56
2023-01-08T21:50:13.318Z,97616.97
2023-01-08T21:52:59.277Z,97613.25
2023-01-08T21:55:27.976Z,97621.25
2023-01-08T21:57:56.625Z,97618.25
2023-01-08T22:00:38.076Z,97617.00
2023-01-08T22:03:06.782Z,97613.28
2023-01-08T22:05:36.968Z,97613.75
2023-01-08T22:08:06.971Z,97610.28
2023-01-08T22:10:35.736Z,97610.88
2023-01-08T22:13:04.425Z,97600.69
2023-01-08T22:15:33.653Z,97598.03
2023-01-08T22:18:02.399Z,97595.75
2023-01-08T22:20:31.192Z,97592.84
2023-01-08T22:23:01.359Z,97579.25
2023-01-08T22:25:30.195Z,97576.25
2023-01-08T22:27:58.941Z,97582.50
2023-01-08T22:30:27.816Z,97580.41
2023-01-08T22:32:56.570Z,97578.81
2023-01-08T22:35:25.410Z,97579.72
2023-01-08T22:39:17.729Z,97568.53
2023-01-08T22:41:47.950Z,97565.50
2023-01-08T22:44:17.089Z,97562.59
2023-01-08T22:46:45.780Z,97556.63
2023-01-08T22:49:17.041Z,97552.81
2023-01-08T22:51:45.796Z,97549.38
2023-01-08T22:54:17.442Z,97547.91
2023-01-08T22:59:07.595Z,97542.34
2023-01-08T23:02:08.415Z,97542.16
2023-01-08T23:04:37.105Z,97546.63
2023-01-08T23:07:05.846Z,97539.00
2023-01-08T23:09:34.559Z,97533.69
2023-01-08T23:12:03.432Z,97537.38
2023-01-08T23:14:48.950Z,97533.09
2023-01-08T23:17:17.695Z,97528.47
2023-01-08T23:19:46.551Z,97530.78
2023-01-08T23:22:15.238Z,97528.78
2023-01-08T23:24:44.030Z,97532.06
2023-01-08T23:27:12.743Z,97532.50
2023-01-08T23:29:41.437Z,97522.47
2023-01-08T23:32:14.275Z,97510.47
2023-01-08T23:34:43.372Z,97506.19
2023-01-08T23:37:12.077Z,97498.38
2023-01-08T23:39:41.056Z,97496.03
2023-01-08T23:42:09.870Z,97492.69
2023-01-08T23:44:39.901Z,97489.34
2023-01-08T23:47:10.440Z,97484.81
2023-01-08T23:49:41.695Z,97481.94
2023-01-08T23:52:11.390Z,97479.06
2023-01-08T23:54:40.318Z,97474.06
2023-01-08T23:57:09.014Z,97470.38
2023-01-08T23:59:37.696Z,97476.72
